Time;durP1;ratioP1;P1;durP2;ratioP2;P2;SDS_P1;SDS_P2;PMS_P1;PMS_P2;Temp;Humidity;BMP_temperature;BMP_pressure;BME280_temperature;BME280_humidity;BME280_pressure;Samples;Min_cycle;Max_cycle;Signal;HPM_P1;HPM_P2
2022/01/10 00:01:07;;;;;;;9.20;5.90;;;;;;;22.89;35.93;99753.11;104509;1308;60395;-88
2022/01/10 00:03:43;;;;;;;9.90;6.20;;;;;;;22.89;35.98;99747.21;104558;1307;74267;-84
2022/01/10 00:06:11;;;;;;;8.90;6.60;;;;;;;22.89;35.94;99749.04;104531;1308;60588;-81
2022/01/10 00:09:06;;;;;;;8.80;6.10;;;;;;;22.89;36.05;99750.79;104581;1306;61607;-83
2022/01/10 00:11:34;;;;;;;8.60;5.90;;;;;;;22.89;36.10;99745.06;104513;1307;73377;-82
2022/01/10 00:14:15;;;;;;;9.30;6.10;;;;;;;22.90;36.00;99745.20;104627;1307;74044;-83
2022/01/10 00:16:41;;;;;;;8.90;6.00;;;;;;;22.90;36.13;99745.86;104641;1307;60387;-82
2022/01/10 00:19:24;;;;;;;9.60;6.70;;;;;;;22.91;35.95;99748.85;104478;1308;60446;-84
2022/01/10 00:21:50;;;;;;;9.40;6.70;;;;;;;22.91;35.92;99751.38;104574;1308;72989;-85
2022/01/10 00:24:28;;;;;;;10.00;6.50;;;;;;;22.91;36.08;99753.52;104670;1307;75002;-85
2022/01/10 00:26:56;;;;;;;9.30;6.60;;;;;;;22.90;35.93;99754.63;104577;1308;60936;-82
2022/01/10 00:29:35;;;;;;;8.40;6.40;;;;;;;22.90;35.89;99754.13;104592;1307;60381;-82
2022/01/10 00:32:10;;;;;;;9.10;6.60;;;;;;;22.90;35.86;99748.21;104602;1307;74194;-81
2022/01/10 00:34:36;;;;;;;8.90;6.60;;;;;;;22.90;36.14;99747.49;104696;1306;74027;-84
2022/01/10 00:37:05;;;;;;;10.40;6.90;;;;;;;22.91;36.14;99749.06;104562;1307;60557;-83
2022/01/10 00:39:38;;;;;;;9.10;6.70;;;;;;;22.90;35.78;99747.07;104582;1307;61266;-84
2022/01/10 00:42:13;;;;;;;;;;;;;;;22.90;36.16;99747.64;104593;1308;72857;-84
2022/01/10 00:44:45;;;;;;;9.80;6.50;;;;;;;22.88;36.09;99745.69;104648;1306;75153;-83
2022/01/10 00:47:11;;;;;;;9.40;6.90;;;;;;;22.89;36.17;99745.77;104693;1306;60505;-86
2022/01/10 00:49:47;;;;;;;9.60;6.80;;;;;;;22.89;36.24;99742.02;104676;1306;60389;-82
2022/01/10 00:52:19;;;;;;;9.80;6.80;;;;;;;22.89;36.26;99745.02;104648;1307;73731;-85
2022/01/10 00:55:25;;;;;;;9.50;6.60;;;;;;;22.89;36.07;99743.80;104550;1306;75549;-84
2022/01/10 00:57:58;;;;;;;9.40;6.50;;;;;;;22.89;36.27;99745.60;104686;1306;60492;-82
2022/01/10 01:00:27;;;;;;;8.80;6.50;;;;;;;22.90;36.18;99748.07;104689;1305;61555;-83
2022/01/10 01:03:08;;;;;;;9.70;6.80;;;;;;;22.90;36.26;99744.08;104602;1306;73910;-84
2022/01/10 01:05:45;;;;;;;9.60;6.50;;;;;;;22.91;36.23;99744.55;104681;1306;74062;-82
2022/01/10 01:08:15;;;;;;;9.90;7.10;;;;;;;22.91;36.23;99745.08;104706;1306;60372;-83
2022/01/10 01:13:59;;;;;;;9.10;6.10;;;;;;;22.91;36.24;99749.39;104435;1310;73912;-82
2022/01/10 01:25:12;;;;;;;9.10;6.70;;;;;;;22.91;36.19;99748.60;104425;1309;73998;-83
2022/01/10 01:27:54;;;;;;;;;;;;;;;;;;;;;
2022/01/10 01:30:42;;;;;;;8.00;6.10;;;;;;;22.92;36.30;99745.70;104464;1310;60576;-84
2022/01/10 01:33:18;;;;;;;10.00;6.60;;;;;;;22.92;36.14;99744.97;104278;1310;223708;-83
2022/01/10 01:36:10;;;;;;;8.60;6.30;;;;;;;22.92;36.14;99739.25;104487;1309;73861;-84
2022/01/10 01:38:47;;;;;;;8.80;6.60;;;;;;;22.92;36.23;99737.20;104444;1309;73955;-85
2022/01/10 01:44:27;;;;;;;9.20;6.70;;;;;;;22.93;36.12;99734.84;104415;1309;61491;-83
2022/01/10 01:47:13;;;;;;;8.80;6.50;;;;;;;22.93;36.13;99737.29;104414;1311;72881;-85
2022/01/10 01:49:45;;;;;;;9.80;6.70;;;;;;;22.93;36.13;99740.01;104482;1309;75009;-83
2022/01/10 01:52:31;;;;;;;9.50;7.00;;;;;;;22.94;36.25;99740.28;104684;1306;61506;-85
2022/01/10 01:54:59;;;;;;;8.00;6.40;;;;;;;22.94;36.12;99738.48;104713;1306;60337;-84
2022/01/10 01:57:45;;;;;;;;;;;;;;;;;;;;;
2022/01/10 02:00:22;;;;;;;9.20;7.30;;;;;;;22.94;36.07;99737.40;104558;1307;73914;-80
2022/01/10 02:03:05;;;;;;;8.10;6.40;;;;;;;22.95;36.27;99737.88;104639;1306;61487;-83
2022/01/10 02:05:34;;;;;;;8.70;6.30;;;;;;;22.95;36.06;99738.24;104677;1306;60442;-84
2022/01/10 02:08:06;;;;;;;8.60;6.80;;;;;;;22.95;36.32;99737.89;104654;1306;73734;-84
2022/01/10 02:10:53;;;;;;;;;;;;;;;;;;;;;
2022/01/10 02:13:28;;;;;;;8.90;6.90;;;;;;;22.95;36.13;99732.69;104620;1307;61249;-83
2022/01/10 02:16:42;;;;;;;8.30;6.30;;;;;;;22.95;36.12;99734.30;104616;1307;60387;-85
2022/01/10 02:19:19;;;;;;;7.70;6.20;;;;;;;22.95;36.25;99737.17;104687;1306;72716;-84
2022/01/10 02:22:03;;;;;;;7.40;6.10;;;;;;;22.95;36.18;99741.77;104786;1306;75163;-84
2022/01/10 02:24:38;;;;;;;8.20;6.40;;;;;;;22.95;36.28;99742.15;104581;1305;60578;-82
2022/01/10 02:27:27;;;;;;;8.30;6.70;;;;;;;22.95;36.30;99746.32;104557;1306;60418;-83
2022/01/10 02:29:55;;;;;;;7.90;6.10;;;;;;;22.95;36.16;99748.45;104395;1311;72738;-83
2022/01/10 02:32:23;;;;;;;8.00;6.20;;;;;;;22.96;36.19;99752.90;104366;1311;73859;-83
2022/01/10 02:34:52;;;;;;;7.60;6.20;;;;;;;22.95;36.11;99749.32;104248;1313;60342;-83
2022/01/10 02:37:54;;;;;;;;;;;;;;;;;;;;;
2022/01/10 02:40:23;;;;;;;7.50;5.90;;;;;;;22.95;36.35;99752.91;104366;1311;73782;-82
2022/01/10 02:42:58;;;;;;;7.20;5.70;;;;;;;22.96;36.28;99749.48;104432;1311;73995;-83
2022/01/10 02:45:37;;;;;;;8.00;6.10;;;;;;;22.96;36.27;99751.45;104399;1311;60740;-84
2022/01/10 02:48:11;;;;;;;7.70;5.70;;;;;;;22.96;36.30;99755.04;104403;1311;60361;-84
2022/01/10 02:50:46;;;;;;;7.80;5.80;;;;;;;22.96;36.27;99758.26;104352;1311;73793;-83
2022/01/10 02:53:32;;;;;;;7.20;5.50;;;;;;;22.96;36.30;99760.73;104301;1311;73886;-79
2022/01/10 02:56:02;;;;;;;7.70;5.60;;;;;;;22.96;36.38;99763.59;104417;1311;60594;-84
2022/01/10 02:58:36;;;;;;;8.00;6.00;;;;;;;22.97;36.24;99767.17;104363;1311;60603;-83
2022/01/10 03:01:02;;;;;;;8.20;5.80;;;;;;;22.96;36.40;99768.81;104375;1311;73799;-86
2022/01/10 03:03:31;;;;;;;7.50;5.60;;;;;;;22.97;36.40;99770.94;104258;1313;60512;-82
2022/01/10 03:06:00;;;;;;;7.60;5.80;;;;;;;22.96;36.32;99770.40;104407;1312;60657;-82
2022/01/10 03:08:39;;;;;;;7.50;5.80;;;;;;;22.96;36.35;99774.89;104551;1306;61475;-83
2022/01/10 03:11:08;;;;;;;6.40;5.20;;;;;;;22.97;36.24;99778.77;104806;1306;73885;-84
2022/01/10 03:13:50;;;;;;;7.80;5.50;;;;;;;22.97;36.43;99780.41;104687;1306;73964;-83
2022/01/10 03:16:24;;;;;;;7.30;5.40;;;;;;;22.97;36.38;99775.40;104710;1306;60508;-82
2022/01/10 03:19:00;;;;;;;7.00;5.50;;;;;;;22.97;36.33;99775.79;104602;1306;60560;-81
2022/01/10 03:21:35;;;;;;;6.30;5.30;;;;;;;22.97;36.13;99779.54;104585;1307;73695;-82
2022/01/10 03:24:04;;;;;;;7.10;5.10;;;;;;;22.96;36.39;99782.08;104430;1308;74327;-81
2022/01/10 03:26:31;;;;;;;6.40;4.80;;;;;;;22.97;36.44;99785.44;104489;1306;60484;-85
2022/01/10 03:29:07;;;;;;;6.50;5.20;;;;;;;22.97;36.38;99787.03;104465;1306;60340;-84
2022/01/10 03:31:36;;;;;;;8.10;5.30;;;;;;;22.96;36.36;99786.21;104496;1308;72854;-84
2022/01/10 03:34:13;;;;;;;6.30;5.00;;;;;;;22.97;36.43;99787.92;104578;1306;74836;-83
2022/01/10 03:36:45;;;;;;;6.90;5.10;;;;;;;22.97;36.29;99794.95;104548;1306;60521;-82
2022/01/10 03:39:16;;;;;;;5.80;4.50;;;;;;;22.97;36.47;99796.73;104572;1307;60451;-86
2022/01/10 03:41:41;;;;;;;7.50;5.40;;;;;;;22.97;36.41;99797.62;104552;1305;72860;-86
2022/01/10 03:44:17;;;;;;;5.70;4.60;;;;;;;22.97;36.41;99801.55;104585;1307;60349;-85
2022/01/10 03:47:01;;;;;;;6.60;4.80;;;;;;;22.97;36.49;99805.87;104548;1308;61376;-82
2022/01/10 03:49:27;;;;;;;6.00;4.60;;;;;;;22.97;36.40;99805.83;104609;1306;61620;-85
2022/01/10 03:51:59;;;;;;;6.30;4.50;;;;;;;22.97;36.41;99810.67;104534;1306;72996;-84
2022/01/10 03:54:32;;;;;;;6.30;4.90;;;;;;;22.98;36.33;99811.55;104688;1307;74837;-88
2022/01/10 03:57:06;;;;;;;7.60;5.00;;;;;;;22.98;36.40;99817.80;104568;1306;60708;-84
2022/01/10 03:59:35;;;;;;;6.60;4.70;;;;;;;22.98;36.47;99815.50;104573;1307;61725;-84
2022/01/10 04:02:08;;;;;;;5.80;4.60;;;;;;;22.98;36.31;99819.98;104444;1307;71593;-84
2022/01/10 04:04:46;;;;;;;7.10;4.80;;;;;;;22.98;36.35;99825.18;104592;1306;74896;-83
2022/01/10 04:07:14;;;;;;;6.10;4.40;;;;;;;22.98;36.41;99828.58;104605;1307;61526;-82
2022/01/10 04:09:42;;;;;;;5.90;4.50;;;;;;;22.98;36.44;99830.56;104678;1306;60380;-83
2022/01/10 04:12:15;;;;;;;5.70;4.10;;;;;;;22.98;36.55;99834.10;104592;1308;72760;-83
2022/01/10 04:14:41;;;;;;;5.20;4.40;;;;;;;22.98;36.33;99838.80;104656;1306;74050;-83
2022/01/10 04:17:16;;;;;;;5.70;4.40;;;;;;;22.98;36.40;99842.04;104605;1307;60989;-82
2022/01/10 04:19:44;;;;;;;5.10;3.90;;;;;;;22.98;36.39;99845.95;104512;1307;60428;-85
2022/01/10 04:22:24;;;;;;;5.90;4.20;;;;;;;22.98;36.31;99854.09;104679;1307;72796;-83
2022/01/10 04:24:52;;;;;;;5.20;4.30;;;;;;;22.98;36.48;99857.09;104537;1307;75082;-83
2022/01/10 04:27:38;;;;;;;5.10;4.10;;;;;;;22.98;36.48;99862.98;104787;1306;61430;-83
2022/01/10 04:30:07;;;;;;;5.30;4.20;;;;;;;22.99;36.49;99864.90;104570;1308;60501;-83
2022/01/10 04:32:35;;;;;;;;;;;;;;;22.98;36.45;99868.75;104458;1308;73197;-82
2022/01/10 04:35:01;;;;;;;4.60;3.40;;;;;;;22.96;36.40;99874.53;104677;1307;73825;-82
2022/01/10 04:37:29;;;;;;;5.50;4.00;;;;;;;22.97;36.54;99874.73;104463;1308;61677;-83
2022/01/10 04:40:09;;;;;;;;;;;;;;;;;;;;;
2022/01/10 04:42:35;;;;;;;4.50;3.30;;;;;;;22.99;36.58;99878.94;104572;1307;73683;-85
2022/01/10 04:45:22;;;;;;;4.50;3.40;;;;;;;22.99;36.67;99880.71;104509;1308;60352;-83
2022/01/10 04:47:49;;;;;;;4.70;3.40;;;;;;;23.00;36.78;99883.86;104580;1308;62640;-82
2022/01/10 04:53:16;;;;;;;4.20;3.20;;;;;;;23.00;36.88;99889.34;104323;1312;73553;-85
2022/01/10 04:55:42;;;;;;;4.80;3.50;;;;;;;23.01;36.78;99893.42;104386;1312;74449;-82
2022/01/10 04:58:16;;;;;;;7.30;3.70;;;;;;;23.01;36.88;99899.34;104263;1313;60568;-81
2022/01/10 05:00:42;;;;;;;4.70;3.50;;;;;;;23.01;36.72;99900.96;104338;1312;61051;-84
2022/01/10 05:03:38;;;;;;;5.30;3.60;;;;;;;23.01;36.82;99903.83;104337;1312;73924;-87
2022/01/10 05:06:25;;;;;;;7.00;3.90;;;;;;;23.02;36.76;99910.36;104280;1312;74775;-83
2022/01/10 05:08:53;;;;;;;8.90;4.00;;;;;;;23.02;36.62;99908.18;104395;1312;61645;-84
2022/01/10 05:11:38;;;;;;;9.00;4.40;;;;;;;23.01;36.59;99911.50;104271;1312;60595;-85
2022/01/10 05:14:15;;;;;;;8.60;4.50;;;;;;;23.01;36.51;99916.55;104246;1313;72817;-81
2022/01/10 05:16:52;;;;;;;8.90;4.90;;;;;;;23.00;36.25;99920.56;104352;1312;73791;-82
2022/01/10 05:19:51;;;;;;;8.80;4.20;;;;;;;23.00;36.10;99916.30;104313;1312;60479;-82
2022/01/10 05:22:40;;;;;;;8.60;3.90;;;;;;;22.99;35.91;99920.36;104340;1312;60465;-84
2022/01/10 05:25:22;;;;;;;8.40;4.50;;;;;;;22.97;35.72;99920.48;104218;1312;72901;-84
2022/01/10 05:27:58;;;;;;;10.60;4.40;;;;;;;22.97;35.51;99918.49;104241;1312;75221;-84
2022/01/10 05:30:26;;;;;;;12.60;4.00;;;;;;;22.97;35.43;99918.53;104441;1305;60558;-83
2022/01/10 05:32:52;;;;;;;7.60;3.90;;;;;;;22.97;35.13;99927.02;104548;1305;60574;-86
2022/01/10 05:35:25;;;;;;;6.50;3.50;;;;;;;22.96;35.01;99929.61;104610;1307;60452;-81
2022/01/10 05:37:51;;;;;;;8.90;3.80;;;;;;;22.94;35.00;99929.56;104622;1305;75192;-83
2022/01/10 05:40:19;;;;;;;9.10;3.80;;;;;;;22.94;34.83;99937.69;104370;1305;60918;-81
2022/01/10 05:42:45;;;;;;;7.10;3.50;;;;;;;22.91;34.70;99939.30;104481;1303;61283;-82
2022/01/10 05:45:17;;;;;;;5.90;3.10;;;;;;;22.89;34.67;99945.66;104428;1305;72901;-80
2022/01/10 05:47:45;;;;;;;7.10;3.40;;;;;;;22.86;34.33;99943.98;104623;1304;60603;-80
2022/01/10 05:50:12;;;;;;;7.70;3.20;;;;;;;22.81;34.33;99944.23;104287;1305;61634;-82
2022/01/10 05:52:38;;;;;;;5.40;2.80;;;;;;;22.76;34.12;99942.94;104330;1305;60589;-79
2022/01/10 05:55:05;;;;;;;6.70;3.00;;;;;;;22.68;34.12;99950.61;104172;1305;61667;-81
2022/01/10 05:57:30;;;;;;;8.50;2.80;;;;;;;22.52;33.96;99954.95;104419;1305;60514;-80
2022/01/10 05:59:57;;;;;;;5.20;3.00;;;;;;;22.27;33.71;99951.95;104504;1305;59099;-80
2022/01/10 06:02:22;;;;;;;5.40;3.00;;;;;;;21.98;33.59;99953.09;104484;1305;61393;-80
2022/01/10 06:04:48;;;;;;;8.70;3.00;;;;;;;21.74;33.83;99955.02;104456;1305;61767;-81
2022/01/10 06:07:14;;;;;;;5.80;2.80;;;;;;;21.73;33.96;99950.63;104365;1307;60525;-80
2022/01/10 06:09:41;;;;;;;5.10;3.40;;;;;;;21.78;33.86;99957.55;104691;1305;60493;-82
2022/01/10 06:12:07;;;;;;;5.30;2.30;;;;;;;21.85;33.90;99959.83;104415;1305;61341;-81
2022/01/10 06:14:33;;;;;;;3.80;2.30;;;;;;;21.92;33.72;99957.75;104675;1305;60582;-81
2022/01/10 06:16:58;;;;;;;4.50;2.40;;;;;;;21.99;33.89;99961.80;104923;1306;59997;-82
2022/01/10 06:19:24;;;;;;;4.70;2.50;;;;;;;22.06;33.57;99961.28;104469;1303;59279;-81
2022/01/10 06:21:50;;;;;;;8.30;2.40;;;;;;;22.13;33.82;99958.20;104425;1305;60464;-81
2022/01/10 06:24:19;;;;;;;5.50;2.20;;;;;;;22.21;33.76;99960.58;104414;1305;60498;-79
2022/01/10 06:26:44;;;;;;;5.30;2.50;;;;;;;22.28;33.79;99959.57;104262;1305;60568;-82
2022/01/10 06:29:10;;;;;;;4.30;2.30;;;;;;;22.34;33.72;99952.39;104966;1305;58736;-79
2022/01/10 06:31:35;;;;;;;6.10;2.50;;;;;;;22.40;33.89;99948.80;104649;1305;59318;-80
2022/01/10 06:34:01;;;;;;;4.20;2.10;;;;;;;22.47;33.77;99954.11;104375;1305;60497;-80
2022/01/10 06:36:26;;;;;;;4.70;2.20;;;;;;;22.53;33.98;99956.44;104558;1305;60425;-80
2022/01/10 06:38:52;;;;;;;6.30;2.50;;;;;;;22.58;34.08;99963.04;104594;1305;60510;-80
2022/01/10 06:41:18;;;;;;;5.80;2.50;;;;;;;22.61;34.16;99960.40;104450;1305;60452;-81
2022/01/10 06:43:43;;;;;;;7.40;2.80;;;;;;;22.64;34.09;99966.98;104449;1306;60547;-80
2022/01/10 06:46:09;;;;;;;5.10;2.40;;;;;;;22.67;33.98;99968.51;104475;1305;59818;-80
2022/01/10 06:48:35;;;;;;;4.70;2.20;;;;;;;22.70;33.84;99975.05;104531;1305;59301;-80
2022/01/10 06:51:00;;;;;;;5.60;2.30;;;;;;;22.72;33.99;99984.52;104486;1305;60652;-79
2022/01/10 06:53:26;;;;;;;13.40;3.00;;;;;;;22.75;33.93;99989.13;104407;1303;60919;-79
2022/01/10 06:55:51;;;;;;;10.30;2.70;;;;;;;22.78;34.01;100002.65;104247;1305;60620;-80
2022/01/10 06:58:17;;;;;;;8.60;2.50;;;;;;;22.80;34.24;100003.89;104082;1303;60506;-80
2022/01/10 07:01:18;;;;;;;7.00;2.50;;;;;;;22.81;34.21;100004.67;103872;1307;60551;-82
2022/01/10 07:03:57;;;;;;;9.00;2.50;;;;;;;22.84;34.38;100011.80;104843;1305;75273;-82
2022/01/10 07:06:34;;;;;;;9.70;2.40;;;;;;;22.86;34.35;100014.59;104411;1303;59766;-81
2022/01/10 07:09:00;;;;;;;15.60;2.80;;;;;;;22.89;34.38;100014.34;104171;1307;60486;-82
2022/01/10 07:11:25;;;;;;;13.50;2.60;;;;;;;22.90;34.78;100016.93;104201;1306;60443;-80
2022/01/10 07:13:52;;;;;;;10.40;2.80;;;;;;;22.92;34.75;100020.52;104200;1305;60437;-82
2022/01/10 07:16:18;;;;;;;9.20;2.40;;;;;;;22.94;34.75;100025.77;104716;1306;59407;-79
2022/01/10 07:18:46;;;;;;;9.60;2.40;;;;;;;22.95;34.79;100026.19;104188;1305;60499;-80
2022/01/10 07:21:11;;;;;;;8.10;3.20;;;;;;;22.96;34.63;100022.70;104640;1304;59309;-80
2022/01/10 07:23:37;;;;;;;6.90;2.40;;;;;;;22.97;34.52;100026.07;104350;1305;60502;-79
2022/01/10 07:26:03;;;;;;;6.60;2.20;;;;;;;22.98;34.56;100026.14;104527;1305;60890;-79
2022/01/10 07:28:28;;;;;;;8.80;2.50;;;;;;;22.98;34.38;100029.90;104887;1303;59317;-79
2022/01/10 07:30:54;;;;;;;5.50;2.30;;;;;;;22.98;34.24;100025.63;104406;1305;60985;-79
2022/01/10 07:33:20;;;;;;;8.10;2.50;;;;;;;22.97;34.09;100030.31;104127;1304;73637;-79
2022/01/10 07:35:46;;;;;;;5.90;2.20;;;;;;;22.97;34.07;100033.77;104489;1305;73773;-80
2022/01/10 07:38:12;;;;;;;7.10;2.40;;;;;;;22.97;34.01;100038.60;104521;1305;60487;-79
2022/01/10 07:40:37;;;;;;;5.40;2.30;;;;;;;22.96;33.86;100033.08;104486;1306;59446;-81
2022/01/10 07:43:03;;;;;;;7.10;2.50;;;;;;;22.96;33.75;100034.21;104510;1305;60594;-80
2022/01/10 07:45:28;;;;;;;4.90;2.30;;;;;;;22.96;33.46;100030.27;104447;1303;61446;-81
2022/01/10 07:47:54;;;;;;;5.10;2.40;;;;;;;22.96;33.49;100029.56;104440;1308;75401;-81
2022/01/10 07:50:20;;;;;;;5.50;2.10;;;;;;;22.95;33.42;100030.29;104506;1305;59474;-79
2022/01/10 07:52:46;;;;;;;4.90;2.20;;;;;;;22.95;33.31;100025.52;103976;1307;60538;-81
2022/01/10 07:55:12;;;;;;;7.70;2.60;;;;;;;22.94;33.09;100030.11;104132;1306;60612;-79
2022/01/10 07:57:37;;;;;;;6.10;2.20;;;;;;;22.91;33.16;100032.09;104278;1306;60841;-79
2022/01/10 08:00:07;;;;;;;5.70;2.40;;;;;;;22.89;32.91;100040.15;104137;1305;60597;-79
2022/01/10 08:02:32;;;;;;;11.50;2.50;;;;;;;22.86;32.74;100045.64;104307;1305;60522;-79
2022/01/10 08:04:58;;;;;;;9.40;2.50;;;;;;;22.83;32.77;100047.95;104027;1305;59320;-80
2022/01/10 08:07:24;;;;;;;8.00;2.30;;;;;;;22.80;32.60;100051.91;104155;1307;60380;-80
2022/01/10 08:09:49;;;;;;;7.60;2.40;;;;;;;22.78;32.63;100054.13;104184;1305;60335;-80
2022/01/10 08:12:15;;;;;;;4.50;2.20;;;;;;;22.77;32.59;100055.83;104198;1306;60616;-80
2022/01/10 08:14:41;;;;;;;7.20;2.20;;;;;;;22.77;32.45;100062.11;104204;1305;60596;-80
2022/01/10 08:17:06;;;;;;;6.20;2.30;;;;;;;22.78;32.40;100062.03;105131;1306;59064;-80
2022/01/10 08:19:34;;;;;;;8.60;2.50;;;;;;;22.79;32.48;100064.39;105365;1303;59771;-79
2022/01/10 08:22:00;;;;;;;7.00;1.90;;;;;;;22.82;32.40;100065.59;105395;1306;60020;-81
2022/01/10 08:24:26;;;;;;;6.00;2.20;;;;;;;22.85;32.62;100067.15;104233;1305;60381;-79
2022/01/10 08:26:52;;;;;;;9.90;2.20;;;;;;;22.88;32.43;100077.95;104363;1305;58745;-80
2022/01/10 08:29:18;;;;;;;7.70;2.20;;;;;;;22.90;32.55;100079.20;104834;1305;60471;-80
2022/01/10 08:31:44;;;;;;;5.90;2.10;;;;;;;22.91;32.58;100080.20;104553;1305;60508;-79
2022/01/10 08:34:11;;;;;;;3.90;2.10;;;;;;;22.92;32.62;100079.42;104622;1304;60645;-80
2022/01/10 08:36:36;;;;;;;6.00;2.30;;;;;;;22.92;32.57;100079.42;104614;1305;60688;-80
2022/01/10 08:39:03;;;;;;;6.20;2.40;;;;;;;22.92;32.69;100079.02;104416;1305;59294;-80
2022/01/10 08:41:32;;;;;;;5.30;2.50;;;;;;;22.92;32.60;100079.20;104355;1305;60385;-79
2022/01/10 08:43:57;;;;;;;5.90;2.30;;;;;;;22.92;32.42;100072.38;104325;1305;60576;-80
2022/01/10 08:46:23;;;;;;;7.40;2.00;;;;;;;22.92;32.37;100071.02;104200;1305;60941;-79
2022/01/10 08:48:49;;;;;;;5.10;2.30;;;;;;;22.91;32.19;100068.52;104076;1306;60503;-80
2022/01/10 08:51:15;;;;;;;5.70;2.40;;;;;;;22.90;32.35;100068.40;105367;1303;59640;-79
2022/01/10 08:53:40;;;;;;;7.40;2.70;;;;;;;22.90;32.12;100068.49;105097;1306;59737;-80
2022/01/10 08:56:06;;;;;;;10.50;2.60;;;;;;;22.74;31.73;100068.42;105392;1305;59158;-80
2022/01/10 08:58:32;;;;;;;7.80;2.50;;;;;;;22.57;31.69;100065.60;105100;1305;59704;-80
2022/01/10 09:00:59;;;;;;;16.00;2.80;;;;;;;22.50;31.84;100068.98;104704;1306;60021;-79
2022/01/10 09:03:25;;;;;;;9.60;2.60;;;;;;;22.46;31.88;100075.28;104106;1305;74878;-80
2022/01/10 09:05:54;;;;;;;11.20;2.60;;;;;;;22.45;31.96;100070.33;104082;1306;61508;-81
2022/01/10 09:08:19;;;;;;;7.80;2.60;;;;;;;22.46;32.21;100072.38;104678;1305;60771;-80
2022/01/10 09:10:45;;;;;;;7.40;2.30;;;;;;;22.48;32.33;100072.41;104301;1305;59946;-80
2022/01/10 09:13:11;;;;;;;6.50;2.30;;;;;;;22.49;32.47;100075.13;104232;1305;61301;-80
2022/01/10 09:15:39;;;;;;;7.80;2.50;;;;;;;22.51;32.36;100069.84;104484;1305;61118;-80
2022/01/10 09:18:05;;;;;;;7.00;2.30;;;;;;;22.52;32.16;100075.39;104540;1305;59351;-81
2022/01/10 09:20:30;;;;;;;8.00;2.20;;;;;;;22.54;32.23;100086.74;104311;1306;61341;-82
2022/01/10 09:22:58;;;;;;;9.90;2.50;;;;;;;22.56;32.28;100087.83;104482;1305;61388;-80
2022/01/10 09:25:24;;;;;;;8.50;2.20;;;;;;;22.57;32.14;100087.53;104571;1305;59478;-80
2022/01/10 09:27:49;;;;;;;10.30;2.50;;;;;;;22.61;32.26;100094.02;104726;1304;61342;-81
2022/01/10 09:30:15;;;;;;;7.40;2.50;;;;;;;22.62;32.13;100088.73;104429;1305;61291;-80
2022/01/10 09:32:41;;;;;;;5.60;2.20;;;;;;;22.63;32.00;100090.06;104311;1305;61312;-80
2022/01/10 09:35:07;;;;;;;4.90;2.40;;;;;;;22.64;31.93;100090.15;104355;1306;74882;-81
2022/01/10 09:37:33;;;;;;;7.60;2.50;;;;;;;22.65;31.96;100085.59;104021;1306;61299;-80
2022/01/10 09:39:58;;;;;;;5.60;2.40;;;;;;;22.65;31.92;100091.34;104550;1305;61283;-80
2022/01/10 09:42:24;;;;;;;4.60;2.40;;;;;;;22.65;31.76;100089.39;104417;1306;61307;-80
2022/01/10 09:44:51;;;;;;;6.50;2.50;;;;;;;22.65;31.74;100094.55;104487;1303;61380;-80
2022/01/10 09:47:17;;;;;;;6.10;2.60;;;;;;;22.65;31.63;100094.17;104390;1305;61432;-81
2022/01/10 09:49:42;;;;;;;6.40;2.50;;;;;;;22.65;31.46;100092.27;104627;1305;61333;-80
2022/01/10 09:52:09;;;;;;;7.50;3.00;;;;;;;22.62;31.49;100091.08;104149;1305;63669;-81
2022/01/10 09:54:34;;;;;;;9.80;3.80;;;;;;;22.48;31.13;100091.56;104196;1306;60591;-78
2022/01/10 09:57:00;;;;;;;6.00;3.30;;;;;;;22.01;30.74;100090.27;104268;1306;74600;-79
2022/01/10 09:59:26;;;;;;;5.20;3.00;;;;;;;21.77;31.04;100089.11;104305;1305;59610;-79
2022/01/10 10:01:52;;;;;;;10.40;3.50;;;;;;;21.77;31.33;100086.55;104072;1306;60486;-79
2022/01/10 10:04:18;;;;;;;12.90;3.40;;;;;;;21.82;31.42;100086.15;104081;1305;61168;-81
2022/01/10 10:06:44;;;;;;;9.10;3.60;;;;;;;21.86;31.82;100090.30;104233;1305;61411;-79
2022/01/10 10:09:12;;;;;;;9.80;3.30;;;;;;;21.90;31.91;100088.09;105118;1306;59764;-79
2022/01/10 10:11:48;;;;;;;5.60;3.10;;;;;;;21.96;31.73;100083.71;105387;1305;59181;-79
2022/01/10 10:14:17;;;;;;;8.20;3.20;;;;;;;22.01;31.94;100085.95;105467;1303;72881;-79
2022/01/10 10:16:49;;;;;;;9.90;3.30;;;;;;;22.05;31.76;100093.81;105163;1305;76278;-79
2022/01/10 10:19:28;;;;;;;7.20;3.00;;;;;;;22.09;31.91;100091.67;105167;1306;61549;-79
2022/01/10 10:21:55;;;;;;;12.40;3.30;;;;;;;22.15;31.96;100099.05;104732;1303;61795;-78
2022/01/10 10:24:21;;;;;;;6.40;3.20;;;;;;;22.20;32.14;100097.20;104118;1307;73738;-80
2022/01/10 10:26:46;;;;;;;5.10;3.10;;;;;;;22.25;32.05;100093.20;104157;1305;63600;-80
2022/01/10 10:29:17;;;;;;;10.10;3.40;;;;;;;22.28;32.02;100094.04;104371;1305;60452;-79
2022/01/10 10:31:50;;;;;;;7.60;3.10;;;;;;;22.28;31.79;100091.52;104644;1304;61186;-81
2022/01/10 10:34:20;;;;;;;7.90;3.30;;;;;;;22.30;31.87;100092.29;104540;1305;73931;-81
2022/01/10 10:36:46;;;;;;;9.90;3.10;;;;;;;22.31;32.06;100090.90;104399;1306;75660;-81
2022/01/10 10:39:13;;;;;;;10.20;3.60;;;;;;;22.32;32.09;100084.91;104540;1305;59635;-79
2022/01/10 10:41:39;;;;;;;6.30;3.30;;;;;;;22.32;32.10;100083.98;104322;1303;61203;-79
2022/01/10 10:44:05;;;;;;;8.40;3.30;;;;;;;22.32;32.14;100082.73;104249;1305;61244;-79
2022/01/10 10:46:30;;;;;;;8.20;3.60;;;;;;;22.32;31.93;100087.40;104103;1306;62796;-79
2022/01/10 10:49:03;;;;;;;7.60;3.90;;;;;;;22.32;31.78;100088.64;104105;1303;61280;-79
2022/01/10 10:51:34;;;;;;;9.70;4.30;;;;;;;22.27;31.76;100093.72;104912;1305;61564;-81
2022/01/10 10:54:04;;;;;;;6.90;3.50;;;;;;;22.14;31.86;100098.66;103954;1306;73921;-80
2022/01/10 10:56:34;;;;;;;13.30;4.40;;;;;;;22.05;31.84;100105.09;103864;1305;76893;-82
2022/01/10 10:58:59;;;;;;;11.70;4.20;;;;;;;21.97;31.62;100109.06;103881;1305;61435;-79
2022/01/10 11:01:25;;;;;;;8.10;4.30;;;;;;;21.82;31.67;100115.88;103917;1305;61290;-79
2022/01/10 11:03:52;;;;;;;11.70;4.00;;;;;;;21.76;31.63;100120.52;104006;1304;61300;-81
2022/01/10 11:06:18;;;;;;;10.20;4.40;;;;;;;21.70;31.66;100116.02;103887;1305;61273;-80
2022/01/10 11:08:44;;;;;;;9.60;4.20;;;;;;;21.70;31.78;100118.84;103706;1307;62678;-80
2022/01/10 11:11:21;;;;;;;7.60;4.30;;;;;;;21.74;31.88;100121.21;103648;1306;61331;-83
2022/01/10 11:13:47;;;;;;;8.60;3.90;;;;;;;21.76;31.85;100123.73;105261;1305;74020;-80
2022/01/10 11:16:12;;;;;;;7.00;4.10;;;;;;;21.80;31.87;100125.38;105411;1303;60625;-81
2022/01/10 11:18:39;;;;;;;6.40;4.10;;;;;;;21.85;31.92;100118.73;105187;1306;60960;-80
2022/01/10 11:21:05;;;;;;;9.50;4.40;;;;;;;21.89;31.85;100115.58;105504;1303;59735;-81
2022/01/10 11:23:30;;;;;;;7.60;4.30;;;;;;;21.95;32.03;100116.77;105276;1306;61095;-81
2022/01/10 11:25:56;;;;;;;10.30;4.30;;;;;;;22.00;31.84;100113.46;105476;1303;59411;-81
2022/01/10 11:28:23;;;;;;;12.50;4.60;;;;;;;22.02;31.85;100114.67;105226;1306;60142;-80
2022/01/10 11:30:53;;;;;;;7.20;4.30;;;;;;;22.04;31.86;100112.70;105251;1306;59485;-80
2022/01/10 11:33:20;;;;;;;9.30;4.40;;;;;;;22.09;31.95;100113.94;105350;1304;73038;-81
2022/01/10 11:35:47;;;;;;;9.70;4.30;;;;;;;22.15;32.07;100114.69;105269;1305;74589;-80
2022/01/10 11:38:19;;;;;;;13.00;4.40;;;;;;;22.22;32.12;100120.35;105300;1305;61302;-82
2022/01/10 11:40:47;;;;;;;12.60;4.40;;;;;;;22.27;32.29;100122.39;105272;1303;61629;-81
2022/01/10 11:43:57;;;;;;;7.40;4.30;;;;;;;22.31;32.40;100124.77;105308;1305;73681;-81
2022/01/10 11:46:23;;;;;;;6.70;4.40;;;;;;;22.34;32.39;100125.44;104287;1312;75201;-80
2022/01/10 11:48:55;;;;;;;8.80;4.40;;;;;;;22.36;32.08;100126.48;104217;1312;61332;-81
2022/01/10 11:51:49;;;;;;;9.30;4.90;;;;;;;22.35;31.90;100127.46;104183;1311;61449;-81
2022/01/10 11:54:28;;;;;;;7.70;4.90;;;;;;;21.95;31.35;100132.66;103719;1311;73994;-80
2022/01/10 11:57:00;;;;;;;7.70;4.90;;;;;;;21.55;31.22;100140.17;103997;1310;74848;-81
2022/01/10 11:59:38;;;;;;;15.40;4.90;;;;;;;21.48;31.58;100143.94;104273;1311;60457;-81
2022/01/10 12:02:10;;;;;;;10.60;4.80;;;;;;;21.49;31.39;100143.48;104396;1311;60434;-81